Time;durP1;ratioP1;P1;durP2;ratioP2;P2;SDS_P1;SDS_P2;PMS_P1;PMS_P2;Temp;Humidity;BMP_temperature;BMP_pressure;BME280_temperature;BME280_humidity;BME280_pressure;Samples;Min_cycle;Max_cycle;Signal;HPM_P1;HPM_P2
2022/08/27 00:02:09;;;;;;;8.07;3.20;;;15.50;99.90;;;;;;5091658;27;20051;-56
2022/08/27 00:04:36;;;;;;;10.00;3.10;;;15.50;99.90;;;;;;5098558;27;20051;-56
2022/08/27 00:07:03;;;;;;;6.63;3.10;;;15.50;99.90;;;;;;5089955;28;20770;-55
2022/08/27 00:09:30;;;;;;;8.18;3.13;;;15.60;99.90;;;;;;5086644;27;20131;-41
2022/08/27 00:11:57;;;;;;;8.65;3.60;;;15.60;99.90;;;;;;5109905;27;20497;-56
2022/08/27 00:14:24;;;;;;;7.72;3.50;;;15.60;99.90;;;;;;5090553;27;20036;-55
2022/08/27 00:16:50;;;;;;;9.45;3.03;;;15.60;99.90;;;;;;5058280;28;20039;-54
2022/08/27 00:19:17;;;;;;;9.13;3.22;;;15.70;99.90;;;;;;5071272;27;20051;-55
2022/08/27 00:21:43;;;;;;;6.65;3.40;;;15.70;99.90;;;;;;5072842;27;20124;-56
2022/08/27 00:24:11;;;;;;;7.68;3.67;;;15.80;99.90;;;;;;5089631;28;20494;-52
2022/08/27 00:26:38;;;;;;;7.15;3.25;;;15.80;99.90;;;;;;5073283;27;20368;-42
2022/08/27 00:29:05;;;;;;;9.93;3.40;;;15.80;99.90;;;;;;5080876;27;20047;-42
2022/08/27 00:31:31;;;;;;;9.20;3.55;;;15.80;99.90;;;;;;5068719;28;20131;-41
2022/08/27 00:34:00;;;;;;;7.10;3.35;;;15.80;99.90;;;;;;5090266;28;20059;-42
2022/08/27 00:36:26;;;;;;;9.95;3.53;;;15.80;99.90;;;;;;5089915;28;20043;-41
2022/08/27 00:38:53;;;;;;;10.30;3.50;;;15.80;99.90;;;;;;5084185;28;20070;-43
2022/08/27 00:41:20;;;;;;;8.55;3.53;;;15.80;99.90;;;;;;5077120;28;20157;-41
2022/08/27 00:43:51;;;;;;;9.50;3.67;;;15.80;99.90;;;;;;5091353;28;20411;-41
2022/08/27 00:46:26;;;;;;;8.63;3.38;;;15.80;99.90;;;;;;5084954;28;20093;-42
2022/08/27 00:49:01;;;;;;;7.45;3.45;;;15.80;99.90;;;;;;5086659;28;20498;-41
2022/08/27 00:51:29;;;;;;;7.13;3.65;;;15.80;99.90;;;;;;5067823;28;20118;-42
2022/08/27 00:53:57;;;;;;;8.05;3.33;;;15.90;99.90;;;;;;5093286;27;20047;-43
2022/08/27 00:56:28;;;;;;;8.05;3.45;;;15.80;99.90;;;;;;5055909;28;20047;-41
2022/08/27 00:58:55;;;;;;;7.63;3.17;;;15.90;99.90;;;;;;5070539;28;20043;-41
2022/08/27 01:01:26;;;;;;;8.07;3.42;;;15.90;99.90;;;;;;5091469;27;20104;-42
2022/08/27 01:03:56;;;;;;;6.33;3.50;;;15.90;99.90;;;;;;5090063;28;20062;-46
2022/08/27 01:06:25;;;;;;;7.32;3.53;;;15.90;99.90;;;;;;5069884;28;20048;-41
2022/08/27 01:08:57;;;;;;;9.32;4.05;;;15.90;99.90;;;;;;5089353;28;20052;-42
2022/08/27 01:11:24;;;;;;;8.20;3.42;;;15.90;99.90;;;;;;5070715;28;20073;-47
2022/08/27 01:13:50;;;;;;;8.23;3.50;;;15.90;99.90;;;;;;5071462;28;20119;-41
2022/08/27 01:16:22;;;;;;;7.72;3.22;;;15.90;99.90;;;;;;5090383;28;20728;-42
2022/08/27 01:18:49;;;;;;;8.27;3.83;;;15.90;99.90;;;;;;5069322;28;20056;-40
2022/08/27 01:21:26;;;;;;;6.15;3.17;;;15.90;99.90;;;;;;5085552;28;20522;-40
2022/08/27 01:24:01;;;;;;;9.02;3.80;;;15.90;99.90;;;;;;5086812;28;20064;-41
2022/08/27 01:26:29;;;;;;;12.25;4.13;;;15.90;99.90;;;;;;5101886;27;20556;-53
2022/08/27 01:28:55;;;;;;;8.30;3.58;;;15.90;99.90;;;;;;5085254;28;20454;-53
2022/08/27 01:31:21;;;;;;;7.30;3.30;;;15.90;99.90;;;;;;5088340;28;20149;-54
2022/08/27 01:34:04;;;;;;;8.73;3.85;;;15.90;99.90;;;;;;5051385;28;20047;-53
2022/08/27 01:36:31;;;;;;;8.32;3.92;;;15.90;99.90;;;;;;5087883;28;20047;-54
2022/08/27 01:38:57;;;;;;;9.70;3.72;;;15.80;99.90;;;;;;5113406;27;20111;-40
2022/08/27 01:41:24;;;;;;;6.80;3.70;;;15.80;99.90;;;;;;5074725;28;20050;-41
2022/08/27 01:43:50;;;;;;;8.68;3.38;;;15.80;99.90;;;;;;5058576;28;20055;-41
2022/08/27 01:46:24;;;;;;;9.15;3.45;;;15.90;99.90;;;;;;5093724;27;20669;-41
2022/08/27 01:48:51;;;;;;;7.97;3.15;;;15.90;99.90;;;;;;5043737;28;20062;-43
2022/08/27 01:51:18;;;;;;;10.50;3.50;;;15.90;99.90;;;;;;5104589;27;20461;-41
2022/08/27 01:53:44;;;;;;;5.10;3.13;;;15.80;99.90;;;;;;5090985;27;20035;-39
2022/08/27 01:56:10;;;;;;;6.38;3.55;;;15.90;99.90;;;;;;5059571;28;20043;-40
2022/08/27 01:58:37;;;;;;;8.23;3.33;;;15.80;99.90;;;;;;5095730;28;20044;-43
2022/08/27 02:01:12;;;;;;;6.38;3.33;;;15.80;99.90;;;;;;5073793;28;20066;-40
2022/08/27 02:03:40;;;;;;;7.13;3.17;;;15.80;99.90;;;;;;5073025;28;20122;-39
2022/08/27 02:06:09;;;;;;;11.07;4.03;;;15.80;99.90;;;;;;5092824;27;20062;-41
2022/08/27 02:08:36;;;;;;;7.00;3.25;;;15.80;99.90;;;;;;5088163;27;20052;-40
2022/08/27 02:11:04;;;;;;;6.18;3.25;;;15.80;99.90;;;;;;5091390;28;20040;-39
2022/08/27 02:13:30;;;;;;;6.18;3.08;;;15.80;99.90;;;;;;5093282;27;20071;-41
2022/08/27 02:15:56;;;;;;;6.18;3.55;;;15.80;99.90;;;;;;5111471;27;20069;-54
2022/08/27 02:18:23;;;;;;;6.78;3.13;;;15.80;99.90;;;;;;5096100;27;20054;-55
2022/08/27 02:20:49;;;;;;;9.43;3.42;;;15.80;99.90;;;;;;5076469;28;20346;-55
2022/08/27 02:23:17;;;;;;;9.18;3.58;;;15.80;99.90;;;;;;5090344;27;20093;-56
2022/08/27 02:25:46;;;;;;;6.47;2.97;;;15.80;99.90;;;;;;5091379;28;20942;-54
2022/08/27 02:28:12;;;;;;;10.32;3.40;;;15.80;99.90;;;;;;5076202;27;20039;-52
2022/08/27 02:30:39;;;;;;;7.95;3.80;;;15.80;99.90;;;;;;5076047;27;20052;-43
2022/08/27 02:33:05;;;;;;;7.28;3.22;;;15.90;99.90;;;;;;5107639;27;20062;-40
2022/08/27 02:35:34;;;;;;;7.95;3.58;;;15.90;99.90;;;;;;5081687;27;20047;-43
2022/08/27 02:38:01;;;;;;;8.70;3.30;;;15.90;99.90;;;;;;5111920;27;20609;-41
2022/08/27 02:40:27;;;;;;;5.95;3.17;;;15.90;99.90;;;;;;5095696;27;20557;-40
2022/08/27 02:42:53;;;;;;;9.38;3.42;;;15.90;99.90;;;;;;5094904;27;20051;-40
2022/08/27 02:45:19;;;;;;;7.05;3.08;;;15.90;99.90;;;;;;5059438;28;20097;-42
2022/08/27 02:47:47;;;;;;;8.40;3.05;;;15.90;99.90;;;;;;5058229;28;20370;-55
2022/08/27 02:50:17;;;;;;;6.05;2.92;;;16.00;99.90;;;;;;5094192;27;21270;-57
2022/08/27 02:52:44;;;;;;;7.20;3.72;;;15.90;99.90;;;;;;5090728;28;20538;-43
2022/08/27 02:55:11;;;;;;;8.05;2.85;;;15.90;99.90;;;;;;5090425;27;20193;-40
2022/08/27 02:57:38;;;;;;;6.90;3.05;;;15.90;99.90;;;;;;5072022;28;20622;-41
2022/08/27 03:00:08;;;;;;;5.90;3.10;;;15.90;99.90;;;;;;5092449;28;20124;-40
2022/08/27 03:02:35;;;;;;;6.95;2.92;;;15.90;99.90;;;;;;5073128;28;20120;-41
2022/08/27 03:05:01;;;;;;;9.63;3.97;;;16.00;99.90;;;;;;5042547;28;20550;-54
2022/08/27 03:07:27;;;;;;;9.20;3.60;;;15.90;99.90;;;;;;5092146;28;20135;-55
2022/08/27 03:09:53;;;;;;;7.50;3.40;;;15.90;99.90;;;;;;5088221;28;20058;-54
2022/08/27 03:12:20;;;;;;;6.65;3.55;;;15.90;99.90;;;;;;5101636;27;20059;-55
2022/08/27 03:14:46;;;;;;;9.02;3.60;;;15.90;99.90;;;;;;5055054;28;20126;-56
2022/08/27 03:19:57;;;;;;;5.93;2.83;;;15.80;99.90;;;;;;5091584;28;20110;-43
2022/08/27 03:22:24;;;;;;;7.47;3.20;;;15.80;99.90;;;;;;5091751;27;20485;-41
2022/08/27 03:24:51;;;;;;;7.47;3.25;;;15.90;99.90;;;;;;5087883;27;20054;-41
2022/08/27 03:27:17;;;;;;;9.40;3.40;;;15.80;99.90;;;;;;5063512;28;20039;-38
2022/08/27 03:29:43;;;;;;;6.25;3.10;;;15.80;99.90;;;;;;5106242;27;20578;-40
2022/08/27 03:32:09;;;;;;;5.60;3.33;;;15.80;99.90;;;;;;5111949;27;20042;-41
2022/08/27 03:34:35;;;;;;;9.13;3.50;;;15.70;99.90;;;;;;5073805;28;20534;-42
2022/08/27 03:37:01;;;;;;;9.48;3.65;;;15.60;99.90;;;;;;5097275;27;20043;-41
2022/08/27 03:39:27;;;;;;;7.65;3.30;;;15.50;99.90;;;;;;5078004;28;20046;-40
2022/08/27 03:41:54;;;;;;;6.78;3.58;;;15.40;99.90;;;;;;5094838;27;20043;-41
2022/08/27 03:44:21;;;;;;;8.02;3.72;;;15.30;99.90;;;;;;5079339;28;20052;-41
2022/08/27 03:46:48;;;;;;;8.20;3.60;;;15.30;99.90;;;;;;5094256;27;20144;-41
2022/08/27 03:49:15;;;;;;;8.23;3.80;;;15.20;99.90;;;;;;5087179;28;21278;-42
2022/08/27 03:51:41;;;;;;;9.75;3.70;;;15.20;99.90;;;;;;5105444;27;20123;-44
2022/08/27 03:54:07;;;;;;;6.47;3.60;;;15.10;99.90;;;;;;5096455;27;20039;-56
2022/08/27 03:56:38;;;;;;;7.50;3.65;;;15.10;99.90;;;;;;5092222;28;20058;-55
2022/08/27 03:59:05;;;;;;;7.97;3.53;;;15.10;99.90;;;;;;5094313;27;20051;-56
2022/08/27 04:01:31;;;;;;;7.90;3.90;;;15.20;99.90;;;;;;5093734;27;20154;-55
2022/08/27 04:03:57;;;;;;;7.00;3.92;;;15.20;99.90;;;;;;5108239;27;20048;-54
2022/08/27 04:06:23;;;;;;;8.02;4.22;;;15.20;99.90;;;;;;5096614;27;20047;-54
2022/08/27 04:08:49;;;;;;;7.50;3.47;;;15.20;99.90;;;;;;5075799;28;20052;-52
2022/08/27 04:11:16;;;;;;;8.32;3.33;;;15.20;99.90;;;;;;5061350;28;20046;-40
2022/08/27 04:13:43;;;;;;;9.75;4.70;;;15.20;99.90;;;;;;5084822;27;20117;-40
2022/08/27 04:16:09;;;;;;;6.10;3.40;;;15.20;99.90;;;;;;5091536;27;20491;-40
2022/08/27 04:18:35;;;;;;;6.90;3.45;;;15.30;99.90;;;;;;5091469;28;20263;-45
2022/08/27 04:21:12;;;;;;;9.05;4.15;;;15.30;99.90;;;;;;5092634;27;20086;-41
2022/08/27 04:23:40;;;;;;;7.75;4.07;;;15.20;99.90;;;;;;5092577;28;20568;-42
2022/08/27 04:26:08;;;;;;;8.75;4.03;;;15.20;99.90;;;;;;5077342;28;20062;-40
2022/08/27 04:28:35;;;;;;;7.75;3.75;;;15.10;99.90;;;;;;5095236;27;20052;-50
2022/08/27 04:31:02;;;;;;;7.00;3.42;;;15.10;99.90;;;;;;5090391;28;20039;-56
2022/08/27 04:33:30;;;;;;;9.13;3.95;;;15.00;99.90;;;;;;5092281;28;20154;-55
2022/08/27 04:36:08;;;;;;;4.95;3.35;;;14.90;99.90;;;;;;5076921;28;20402;-57
2022/08/27 04:38:36;;;;;;;5.28;3.70;;;14.90;99.90;;;;;;5093749;27;20562;-54
2022/08/27 04:41:21;;;;;;;6.65;4.18;;;14.80;99.90;;;;;;5092281;28;20124;-53
2022/08/27 04:43:50;;;;;;;7.00;3.42;;;14.80;99.90;;;;;;5091232;27;20098;-54
2022/08/27 04:46:22;;;;;;;8.70;3.53;;;14.70;99.90;;;;;;5070259;28;20114;-53
2022/08/27 04:48:48;;;;;;;6.68;4.10;;;14.70;99.90;;;;;;5092213;28;20044;-54
2022/08/27 04:51:14;;;;;;;12.27;4.25;;;14.70;99.90;;;;;;5108856;27;20407;-54
2022/08/27 04:53:40;;;;;;;8.75;3.63;;;14.70;99.90;;;;;;5104290;27;20043;-54
2022/08/27 04:56:07;;;;;;;8.57;4.20;;;14.70;99.90;;;;;;5072665;28;20050;-53
2022/08/27 04:58:33;;;;;;;7.30;4.07;;;14.60;99.90;;;;;;5072375;28;20051;-54
2022/08/27 05:01:00;;;;;;;8.50;4.47;;;14.60;99.90;;;;;;5071420;28;20127;-55
2022/08/27 05:03:27;;;;;;;9.05;4.15;;;14.60;99.90;;;;;;5109814;27;20488;-41
2022/08/27 05:05:59;;;;;;;7.10;4.03;;;14.60;99.90;;;;;;5060471;28;20062;-44
2022/08/27 05:08:25;;;;;;;8.60;4.05;;;14.70;99.90;;;;;;5071328;28;20051;-42
2022/08/27 05:10:52;;;;;;;8.75;4.13;;;14.70;99.90;;;;;;5108147;27;20071;-43
2022/08/27 05:13:19;;;;;;;9.32;4.22;;;14.80;99.90;;;;;;5078489;28;20048;-42
2022/08/27 05:15:46;;;;;;;7.20;4.30;;;14.80;99.90;;;;;;5073773;28;20046;-42
2022/08/27 05:18:13;;;;;;;8.45;3.85;;;14.80;99.90;;;;;;5073993;28;20048;-42
2022/08/27 05:20:47;;;;;;;6.78;3.83;;;14.80;99.90;;;;;;5070538;28;20056;-40
2022/08/27 05:23:16;;;;;;;8.85;3.92;;;14.90;99.90;;;;;;5105559;27;20132;-42
2022/08/27 05:25:44;;;;;;;7.82;3.20;;;14.90;99.90;;;;;;5073294;28;20515;-42
2022/08/27 05:28:14;;;;;;;9.10;3.85;;;15.00;99.90;;;;;;5072289;28;20048;-42
2022/08/27 05:30:43;;;;;;;6.50;3.35;;;15.00;99.90;;;;;;5096882;28;20044;-42
2022/08/27 05:33:13;;;;;;;8.48;3.78;;;15.00;99.90;;;;;;5073454;28;20123;-41
2022/08/27 05:35:41;;;;;;;5.60;3.50;;;15.10;99.90;;;;;;5090393;28;20051;-44
2022/08/27 05:38:08;;;;;;;6.95;3.67;;;15.20;99.90;;;;;;5094846;28;20044;-42
2022/08/27 05:40:35;;;;;;;10.18;3.95;;;15.20;99.90;;;;;;5060547;28;20040;-42
2022/08/27 05:43:01;;;;;;;6.65;3.20;;;15.20;99.90;;;;;;5042681;28;20048;-41
2022/08/27 05:45:28;;;;;;;9.85;3.75;;;15.40;99.90;;;;;;5090091;28;20043;-43
2022/08/27 05:47:54;;;;;;;8.82;3.47;;;15.40;99.90;;;;;;5061313;28;20047;-51
2022/08/27 05:50:20;;;;;;;10.32;3.83;;;15.50;99.90;;;;;;5079747;28;20047;-54
2022/08/27 05:52:46;;;;;;;7.43;3.15;;;15.70;99.90;;;;;;5097992;28;20087;-52
2022/08/27 05:55:12;;;;;;;5.97;2.83;;;15.90;99.90;;;;;;5094159;28;20044;-38
2022/08/27 05:57:38;;;;;;;7.18;3.50;;;16.10;99.90;;;;;;5091907;28;20137;-40
2022/08/27 06:02:50;;;;;;;10.15;3.00;;;16.40;99.90;;;;;;5090775;28;20048;-39
2022/08/27 06:05:16;;;;;;;5.60;2.75;;;16.60;99.90;;;;;;5075381;28;20039;-39
2022/08/27 06:07:42;;;;;;;6.00;2.70;;;16.80;99.90;;;;;;5109362;27;20062;-39
2022/08/27 06:10:09;;;;;;;6.82;2.85;;;16.90;99.90;;;;;;5081578;28;20513;-56
2022/08/27 06:12:35;;;;;;;11.98;3.13;;;17.00;99.90;;;;;;5090296;28;20589;-55
2022/08/27 06:15:01;;;;;;;4.50;2.30;;;17.20;99.90;;;;;;5103345;27;20042;-57
2022/08/27 06:17:28;;;;;;;5.82;2.22;;;17.30;99.90;;;;;;5073295;28;20425;-55
2022/08/27 06:19:55;;;;;;;7.82;2.50;;;17.50;99.90;;;;;;5088250;28;20047;-55
2022/08/27 06:22:21;;;;;;;7.05;2.33;;;17.70;99.90;;;;;;5066169;28;20074;-56
2022/08/27 06:24:47;;;;;;;6.82;2.08;;;17.90;99.90;;;;;;5065838;28;20066;-57
2022/08/27 06:27:16;;;;;;;5.35;2.40;;;18.10;99.90;;;;;;5087783;27;20090;-52
2022/08/27 06:29:43;;;;;;;31.70;28.10;;;18.30;99.90;;;;;;5068224;28;20044;-52
2022/08/27 06:32:10;;;;;;;6.85;2.83;;;18.50;99.90;;;;;;5093700;27;20445;-54
2022/08/27 06:34:37;;;;;;;6.50;2.88;;;18.30;99.90;;;;;;5108873;27;20078;-54
2022/08/27 06:37:04;;;;;;;6.63;2.80;;;18.20;99.90;;;;;;5103693;27;20563;-53
2022/08/27 06:39:31;;;;;;;6.47;2.47;;;18.00;99.90;;;;;;5081423;27;20079;-55
2022/08/27 06:41:58;;;;;;;5.35;2.70;;;18.00;99.90;;;;;;5090321;27;20142;-54
2022/08/27 06:44:24;;;;;;;6.18;3.78;;;18.20;99.90;;;;;;5073016;27;20048;-53
2022/08/27 06:46:51;;;;;;;7.10;2.45;;;18.50;99.90;;;;;;5085992;27;20051;-54
2022/08/27 06:49:17;;;;;;;6.55;2.28;;;18.80;99.90;;;;;;5093484;27;20235;-42
2022/08/27 06:51:45;;;;;;;7.72;2.33;;;19.10;99.90;;;;;;5108280;27;20040;-42
2022/08/27 06:54:12;;;;;;;18.17;16.23;;;19.40;99.90;;;;;;5104963;27;20048;-56
2022/08/27 06:56:40;;;;;;;20.17;17.33;;;19.80;99.90;;;;;;5063210;27;20047;-55
2022/08/27 06:59:07;;;;;;;6.95;2.45;;;20.00;99.90;;;;;;5089897;27;20410;-41
2022/08/27 07:01:37;;;;;;;7.70;3.25;;;19.90;99.90;;;;;;5107957;27;20331;-50
2022/08/27 07:04:07;;;;;;;6.90;2.45;;;20.00;99.90;;;;;;5090305;27;20109;-41
2022/08/27 07:06:34;;;;;;;7.38;2.63;;;19.90;99.90;;;;;;5065989;27;20078;-42
2022/08/27 07:09:01;;;;;;;11.32;8.43;;;20.00;99.90;;;;;;5104159;27;20442;-42
2022/08/27 07:11:30;;;;;;;5.88;2.08;;;20.00;99.90;;;;;;5076068;27;20043;-42
2022/08/27 07:13:57;;;;;;;7.05;2.28;;;20.10;99.90;;;;;;5101622;27;21156;-43
2022/08/27 07:16:25;;;;;;;8.50;4.28;;;20.20;99.90;;;;;;5088365;27;20044;-41
2022/08/27 07:18:53;;;;;;;6.35;1.83;;;20.70;99.90;;;;;;5089628;27;20135;-41
2022/08/27 07:21:21;;;;;;;5.70;2.00;;;21.20;99.90;;;;;;5106973;27;20124;-42
2022/08/27 07:23:49;;;;;;;36.95;32.55;;;21.70;99.90;;;;;;5075927;28;20101;-42
2022/08/27 07:26:16;;;;;;;42.50;38.08;;;22.00;99.90;;;;;;5070668;28;20077;-42
2022/08/27 07:28:43;;;;;;;26.17;22.77;;;22.40;99.90;;;;;;5089093;27;20052;-44
2022/08/27 07:31:12;;;;;;;6.60;4.43;;;22.60;99.90;;;;;;5108867;27;20042;-44
2022/08/27 07:33:39;;;;;;;8.43;4.43;;;22.50;99.90;;;;;;5090220;28;20454;-42
2022/08/27 07:36:06;;;;;;;16.42;13.77;;;22.60;99.90;;;;;;5093732;27;20482;-41
2022/08/27 07:38:34;;;;;;;22.15;19.25;;;22.90;99.90;;;;;;5087612;27;20055;-41
2022/08/27 07:41:08;;;;;;;7.18;2.10;;;23.10;99.90;;;;;;5089856;27;20524;-41
2022/08/27 07:46:23;;;;;;;7.38;4.10;;;23.90;99.90;;;;;;5075582;28;20104;-41
2022/08/27 07:48:50;;;;;;;8.13;4.15;;;24.10;99.90;;;;;;5079204;27;20092;-42
2022/08/27 07:51:19;;;;;;;5.50;1.55;;;24.20;99.90;;;;;;5087795;27;20054;-43
2022/08/27 07:53:46;;;;;;;4.70;1.20;;;24.20;99.90;;;;;;5080153;27;20120;-42
2022/08/27 07:56:12;;;;;;;7.65;1.60;;;24.40;99.90;;;;;;5103745;27;20129;-43
2022/08/27 07:58:40;;;;;;;5.80;2.05;;;24.80;99.90;;;;;;5090489;27;20047;-44
2022/08/27 08:01:07;;;;;;;8.50;2.38;;;25.10;99.90;;;;;;5068401;28;20082;-43
2022/08/27 08:03:34;;;;;;;4.75;1.45;;;25.50;99.90;;;;;;5072407;28;20135;-45
2022/08/27 08:06:05;;;;;;;6.60;1.65;;;25.10;99.90;;;;;;5090064;27;20047;-43
2022/08/27 08:08:34;;;;;;;6.03;1.65;;;25.50;99.50;;;;;;5068211;28;20101;-59
2022/08/27 08:11:02;;;;;;;4.78;2.22;;;25.70;98.60;;;;;;5094101;27;20546;-58
2022/08/27 08:13:30;;;;;;;6.25;2.00;;;25.80;99.80;;;;;;5091694;27;20043;-59
2022/08/27 08:15:57;;;;;;;7.20;1.77;;;25.60;98.50;;;;;;5088945;27;20490;-59
2022/08/27 08:18:24;;;;;;;4.03;1.40;;;25.20;99.90;;;;;;5071200;28;20044;-59
2022/08/27 08:20:51;;;;;;;7.72;1.60;;;24.80;99.90;;;;;;5075534;28;20168;-58
2022/08/27 08:23:18;;;;;;;5.03;1.40;;;24.90;99.90;;;;;;5076431;28;20063;-58
2022/08/27 08:25:45;;;;;;;5.38;1.50;;;24.70;99.90;;;;;;5069044;27;20062;-58
2022/08/27 08:28:11;;;;;;;5.75;1.70;;;24.60;99.90;;;;;;5076683;28;20513;-58
2022/08/27 08:30:37;;;;;;;7.38;1.70;;;24.60;99.90;;;;;;5057373;28;20083;-58
2022/08/27 08:33:04;;;;;;;7.80;1.40;;;24.60;99.90;;;;;;5072702;28;20051;-58
2022/08/27 08:35:30;;;;;;;6.75;1.77;;;24.90;99.90;;;;;;5070984;28;20051;-58
2022/08/27 08:37:56;;;;;;;6.82;1.55;;;25.50;99.90;;;;;;5071691;28;20511;-58
2022/08/27 08:40:33;;;;;;;5.97;1.30;;;25.90;97.90;;;;;;5072112;28;20047;-58
2022/08/27 08:43:00;;;;;;;4.03;1.10;;;26.40;93.00;;;;;;5056672;27;20040;-42
2022/08/27 08:45:33;;;;;;;6.72;1.60;;;26.70;93.20;;;;;;5083937;28;20040;-42
2022/08/27 08:48:11;;;;;;;4.28;1.13;;;26.40;92.10;;;;;;5085386;27;20043;-41
2022/08/27 08:50:43;;;;;;;5.25;1.60;;;26.20;91.20;;;;;;5083304;27;20134;-43
2022/08/27 08:53:36;;;;;;;7.22;2.72;;;26.70;93.00;;;;;;5090046;28;20759;-42
2022/08/27 08:56:08;;;;;;;5.18;1.98;;;26.40;88.90;;;;;;5090432;27;20043;-42
2022/08/27 08:59:05;;;;;;;5.35;1.58;;;26.90;90.70;;;;;;5090758;27;20504;-42
2022/08/27 09:01:31;;;;;;;4.72;1.75;;;27.10;78.70;;;;;;5053603;28;20489;-41
2022/08/27 09:03:59;;;;;;;6.65;2.05;;;27.00;89.30;;;;;;5099193;27;20117;-41
2022/08/27 09:06:43;;;;;;;8.57;3.72;;;26.60;85.20;;;;;;5090170;28;20047;-41
2022/08/27 09:09:35;;;;;;;7.53;1.92;;;26.80;79.50;;;;;;5105295;27;20055;-41
2022/08/27 09:12:14;;;;;;;4.55;1.60;;;26.30;83.00;;;;;;5053964;28;20661;-42
2022/08/27 09:14:46;;;;;;;11.07;9.40;;;25.90;89.80;;;;;;5073007;28;20036;-43
2022/08/27 09:17:13;;;;;;;6.10;2.15;;;25.50;92.30;;;;;;5099618;27;20056;-43
2022/08/27 09:19:41;;;;;;;18.42;16.42;;;25.10;94.90;;;;;;5085304;28;20479;-43
2022/08/27 09:22:32;;;;;;;6.78;1.90;;;24.80;95.40;;;;;;5091148;27;20126;-42
2022/08/27 09:25:16;;;;;;;6.22;1.60;;;24.70;97.00;;;;;;5108869;27;20059;-42
2022/08/27 09:27:43;;;;;;;6.45;2.08;;;24.50;98.00;;;;;;5103291;27;20044;-41
2022/08/27 09:30:12;;;;;;;6.78;1.58;;;24.40;97.50;;;;;;5104935;27;20067;-45
2022/08/27 09:32:39;;;;;;;5.00;1.55;;;24.80;97.60;;;;;;5093128;28;20048;-42
2022/08/27 09:35:11;;;;;;;8.00;2.00;;;25.30;96.90;;;;;;5069883;28;20823;-42
2022/08/27 09:37:47;;;;;;;18.35;13.07;;;25.20;97.70;;;;;;5035331;28;20047;-41
2022/08/27 09:40:32;;;;;;;11.52;6.75;;;24.70;96.50;;;;;;5107087;27;21348;-41
2022/08/27 09:43:15;;;;;;;9.95;1.75;;;24.30;97.70;;;;;;5086769;28;20164;-41
2022/08/27 09:45:56;;;;;;;6.00;1.95;;;24.10;98.50;;;;;;5105886;27;20055;-42
2022/08/27 09:48:29;;;;;;;11.45;5.82;;;24.30;98.80;;;;;;5092430;28;20093;-42
2022/08/27 09:51:26;;;;;;;5.20;2.05;;;24.90;97.40;;;;;;5088348;28;20655;-44
2022/08/27 09:53:55;;;;;;;3.97;1.40;;;24.80;94.20;;;;;;5084608;28;20048;-40
2022/08/27 09:56:32;;;;;;;8.10;2.75;;;24.50;96.00;;;;;;5071871;28;20061;-43
2022/08/27 09:59:22;;;;;;;7.20;1.98;;;24.80;96.60;;;;;;5078085;28;20693;-42
2022/08/27 10:02:23;;;;;;;7.95;2.10;;;24.50;95.10;;;;;;5104504;27;20047;-43
2022/08/27 10:04:57;;;;;;;5.70;2.50;;;24.60;94.70;;;;;;5074332;27;20521;-42
2022/08/27 10:07:36;;;;;;;5.53;1.63;;;24.40;96.40;;;;;;5076799;28;20056;-42
2022/08/27 10:10:15;;;;;;;8.15;2.20;;;24.20;94.60;;;;;;5101669;27;20070;-41
2022/08/27 10:12:58;;;;;;;9.45;1.83;;;23.90;94.80;;;;;;5054985;27;20039;-43
2022/08/27 10:15:35;;;;;;;6.82;1.67;;;24.00;96.30;;;;;;5100811;27;20044;-42
2022/08/27 10:18:17;;;;;;;9.40;2.80;;;24.00;97.00;;;;;;5091637;28;20053;-42
2022/08/27 10:20:53;;;;;;;;;;;24.10;95.60;;;;;;5074043;27;20248;-42
2022/08/27 10:23:48;;;;;;;7.78;1.50;;;23.90;96.70;;;;;;5106400;27;20294;-43
2022/08/27 10:26:19;;;;;;;3.75;1.70;;;24.40;96.90;;;;;;5100416;27;20078;-41
2022/08/27 10:29:13;;;;;;;5.75;1.90;;;24.60;96.70;;;;;;5076983;28;20047;-62
2022/08/27 10:32:04;;;;;;;6.10;1.30;;;24.80;94.30;;;;;;5091495;27;20089;-58
2022/08/27 10:34:56;;;;;;;7.53;1.23;;;24.80;94.50;;;;;;5108114;27;20085;-58
2022/08/27 10:37:47;;;;;;;6.97;1.55;;;24.70;94.90;;;;;;5060503;27;20167;-58
2022/08/27 10:40:45;;;;;;;5.27;1.20;;;24.60;95.00;;;;;;5076330;27;20047;-57
2022/08/27 10:43:41;;;;;;;5.68;1.98;;;24.40;95.30;;;;;;5094269;27;20333;-58
2022/08/27 10:46:42;;;;;;;15.45;9.38;;;24.20;96.10;;;;;;5069844;28;20096;-42
2022/08/27 10:49:15;;;;;;;;;;;24.10;95.90;;;;;;5069972;28;20086;-46
2022/08/27 10:51:44;;;;;;;4.32;1.48;;;23.70;94.20;;;;;;5091219;27;19977;-43
2022/08/27 10:54:33;;;;;;;7.07;2.22;;;23.70;95.50;;;;;;5076839;28;20097;-46
2022/08/27 10:57:23;;;;;;;3.83;1.27;;;23.60;95.70;;;;;;5072285;27;20044;-42
2022/08/27 10:59:52;;;;;;;7.75;2.95;;;23.50;95.70;;;;;;5076469;27;20131;-44
2022/08/27 11:02:34;;;;;;;7.78;2.03;;;23.70;96.10;;;;;;5083456;27;20047;-43
2022/08/27 11:05:19;;;;;;;8.60;2.53;;;23.70;96.00;;;;;;5090485;27;20104;-42
2022/08/27 11:07:59;;;;;;;4.80;1.40;;;23.70;96.60;;;;;;5059141;28;20052;-52
2022/08/27 11:10:29;;;;;;;7.57;2.15;;;23.90;97.60;;;;;;5092007;27;20543;-47
2022/08/27 11:13:02;;;;;;;6.95;1.70;;;24.10;96.30;;;;;;5089041;27;20113;-42
2022/08/27 11:15:35;;;;;;;5.13;1.77;;;24.00;95.90;;;;;;5102272;27;20075;-43
2022/08/27 11:18:25;;;;;;;8.32;2.40;;;24.10;95.30;;;;;;5092260;27;20050;-49
2022/08/27 11:21:09;;;;;;;8.68;2.50;;;24.00;94.80;;;;;;5070333;28;20094;-42
2022/08/27 11:24:07;;;;;;;5.63;2.10;;;23.80;93.90;;;;;;5070382;27;20054;-43
2022/08/27 11:26:37;;;;;;;9.77;1.73;;;23.90;93.70;;;;;;5105965;27;20207;-46
2022/08/27 11:29:18;;;;;;;5.70;2.17;;;23.80;93.90;;;;;;5049136;27;20040;-42
2022/08/27 11:32:02;;;;;;;5.07;2.00;;;24.10;93.30;;;;;;5085365;28;20097;-46
2022/08/27 11:34:48;;;;;;;7.90;2.08;;;24.20;92.30;;;;;;5058829;28;20048;-44
2022/08/27 11:37:44;;;;;;;5.65;2.00;;;24.50;92.30;;;;;;5069832;27;20094;-50
2022/08/27 11:40:42;;;;;;;5.80;1.48;;;24.80;89.60;;;;;;5042826;28;20134;-48
2022/08/27 11:43:16;;;;;;;5.80;1.48;;;25.40;91.30;;;;;;5077158;28;20511;-48
2022/08/27 11:46:20;;;;;;;10.18;4.35;;;26.20;81.20;;;;;;5073527;28;20503;-43
2022/08/27 11:49:04;;;;;;;11.27;4.55;;;26.70;76.60;;;;;;5051835;28;20055;-45
2022/08/27 11:51:39;;;;;;;14.27;11.02;;;27.40;75.30;;;;;;5088861;27;20047;-41
2022/08/27 11:54:08;;;;;;;8.32;2.67;;;27.60;72.20;;;;;;5101040;27;20043;-46
2022/08/27 11:56:44;;;;;;;7.55;3.50;;;27.80;67.20;;;;;;5086898;28;20044;-44
2022/08/27 11:59:27;;;;;;;6.18;1.67;;;27.30;63.90;;;;;;5075209;28;20448;-44
2022/08/27 12:01:56;;;;;;;9.15;1.90;;;27.20;65.30;;;;;;5074639;28;20117;-43
2022/08/27 12:04:40;;;;;;;5.95;1.85;;;27.20;67.90;;;;;;5088821;27;20051;-43
2022/08/27 12:07:25;;;;;;;6.30;1.33;;;26.60;68.00;;;;;;5091731;28;20059;-44
2022/08/27 12:10:11;;;;;;;5.28;1.48;;;26.40;73.00;;;;;;5087359;27;20115;-47
2022/08/27 12:13:11;;;;;;;5.43;1.55;;;26.10;73.60;;;;;;5103374;27;20044;-44
2022/08/27 12:16:11;;;;;;;5.70;1.30;;;25.90;76.10;;;;;;5091697;27;20044;-43
2022/08/27 12:18:52;;;;;;;7.57;3.05;;;25.60;80.40;;;;;;5101577;27;20050;-42
2022/08/27 12:21:18;;;;;;;5.40;1.60;;;25.60;83.30;;;;;;5068062;28;20902;-42
2022/08/27 12:24:06;;;;;;;7.35;1.90;;;25.50;83.30;;;;;;5085253;27;20155;-41
2022/08/27 12:26:38;;;;;;;8.95;2.70;;;25.60;79.80;;;;;;5072613;28;20071;-45
2022/08/27 12:29:37;;;;;;;6.03;1.65;;;25.50;81.80;;;;;;5066389;28;20757;-42
2022/08/27 12:32:06;;;;;;;8.60;2.50;;;25.60;80.60;;;;;;5106852;27;20039;-43
2022/08/27 12:34:43;;;;;;;7.72;1.95;;;25.60;80.50;;;;;;5104172;27;20402;-41
2022/08/27 12:37:10;;;;;;;6.38;1.55;;;26.50;76.50;;;;;;5072297;28;20044;-44
2022/08/27 12:39:41;;;;;;;3.00;0.90;;;27.40;68.60;;;;;;5074782;28;20074;-44
2022/08/27 12:42:18;;;;;;;4.22;1.27;;;28.00;65.50;;;;;;5089408;27;20079;-40
2022/08/27 12:44:44;;;;;;;5.82;1.27;;;28.60;60.40;;;;;;5052003;28;20053;-46
2022/08/27 12:47:12;;;;;;;3.75;0.93;;;29.00;57.70;;;;;;5084039;28;20183;-47
2022/08/27 12:49:59;;;;;;;9.55;3.90;;;28.20;58.80;;;;;;5089849;28;21228;-49
2022/08/27 12:52:43;;;;;;;12.02;6.32;;;27.60;61.00;;;;;;5066676;28;20062;-43
2022/08/27 12:55:15;;;;;;;7.18;2.65;;;26.70;63.60;;;;;;5089082;27;20097;-48
2022/08/27 12:57:44;;;;;;;8.57;2.53;;;26.20;67.10;;;;;;5053521;28;20047;-46
2022/08/27 13:00:18;;;;;;;8.55;1.90;;;26.00;69.90;;;;;;5070757;28;20118;-44
2022/08/27 13:03:00;;;;;;;5.10;1.85;;;25.60;72.70;;;;;;5088319;27;20090;-46
2022/08/27 13:05:34;;;;;;;6.85;2.47;;;25.30;79.50;;;;;;5089534;28;20053;-47
2022/08/27 13:08:00;;;;;;;7.80;2.08;;;25.40;75.70;;;;;;5085655;28;20079;-47
2022/08/27 13:10:29;;;;;;;10.15;1.92;;;26.40;72.40;;;;;;5071419;28;20051;-45
2022/08/27 13:13:07;;;;;;;6.13;1.33;;;27.50;66.00;;;;;;5072544;28;20383;-47
2022/08/27 13:15:34;;;;;;;5.95;1.30;;;28.20;60.70;;;;;;5094837;27;20505;-46
2022/08/27 13:18:03;;;;;;;4.85;1.10;;;28.80;59.60;;;;;;5096268;28;20044;-46